This is the latest recevied weather packets stored in our database for station/object KD5NDU-15. If no packets are shown the sender has not sent any weather packets the latest 10 day(s).
| Time | Temp. | Humidity | Pressure | Rain* | Wind** | Luminosity | Snow |
|---|---|---|---|---|---|---|---|
| 1778082408 | 18.89° C | 97% | 1009.6 hPa | 0 mm | - | 109 W/m² | - |
| 1778082108 | 18.89° C | 97% | 1009.6 hPa | 0 mm | - | 79 W/m² | - |
| 1778081810 | 18.89° C | 97% | 1009.6 hPa | 0 mm | - | 70 W/m² | - |
| 1778081508 | 19.44° C | 98% | 1009.6 hPa | 0 mm | - | 98 W/m² | - |
| 1778081208 | 19.44° C | 98% | 1009.6 hPa | 0 mm | - | 102 W/m² | - |
| 1778080908 | 19.44° C | 98% | 1009.5 hPa | 0 mm | - | 72 W/m² | - |
| 1778080608 | 19.44° C | 98% | 1009.6 hPa | 0 mm | - | 76 W/m² | - |
| 1778080308 | 19.44° C | 98% | 1009.2 hPa | 0 mm | - | 93 W/m² | - |
| 1778080008 | - | - | 0 hPa | 0 mm | - | - | - |
| 1778079708 | - | - | 0 hPa | 0 mm | - | - | - |
| 1778071197 | - | - | 0 hPa | 0 mm | - | - | - |
| 1778070772 | - | - | 0 hPa | 0 mm | - | - | - |
| 1778037565 | 21.11° C | 89% | 1006.9 hPa | 0 mm | - | 0 W/m² | - |
| 1778037257 | 21.11° C | 89% | 1006.9 hPa | 0 mm | - | 0 W/m² | - |
| 1778036957 | 21.11° C | 89% | 1006.9 hPa | 0 mm | - | 0 W/m² | - |
| 1778036657 | 21.11° C | 89% | 1007 hPa | 0 mm | - | 0 W/m² | - |
| 1778036357 | 21.11° C | 89% | 1006.9 hPa | 0 mm | - | 0 W/m² | - |
| 1778036057 | 21.11° C | 89% | 1006.8 hPa | 0 mm | - | 0 W/m² | - |
| 1778035757 | 21.11° C | 88% | 1006.7 hPa | 0 mm | - | 0 W/m² | - |
| 1778035457 | 21.11° C | 88% | 1006.7 hPa | 0 mm | - | 0 W/m² | - |
| 1778035157 | 21.11° C | 88% | 1006.8 hPa | 0 mm | - | 0 W/m² | - |
| 1778034857 | 21.11° C | 88% | 1006.9 hPa | 0 mm | - | 0 W/m² | - |
| 1778034585 | 21.11° C | 88% | 1006.8 hPa | 0 mm | - | 0 W/m² | - |
| 1778034258 | 21.11° C | 88% | 1006.7 hPa | 0 mm | - | 0 W/m² | - |
| 1778033957 | 21.11° C | 88% | 1006.7 hPa | 0 mm | - | 0 W/m² | - |
* Rain latest hour (hover to see other rain measurements)
** Current wind speed in m/s (hover to see current wind gust speed)